Clearview City, Kansas
Current Conditions -  °F | °C
As of 4:10 AM on Friday 24 Oct 2014 (Local Time) from KIXD Reporting Station
Haze Haze  
Wind Chill: 56°   Ceiling: 200
Heat Index: 56°   Visibility: 1.5mi
Dew Point: 56°   Wind: 12mph
Humidity: 100%   Direction: 200°SSW
Pressure: 30.07"   Gusts: NA
Location:  38.95°N, 95°W
Report Text: KIXD 240910Z AUTO 20010KT 1 1/2SM BR OVC002 13/13 A3007 RMK AO2 T01330133
Loading
Personal Weather Stations






























Interactive Weather Map
Tropical Storm Tracking
New forecast layout! Learn more

10-Day Weather Forecast

Advertisements
Track Severe Weather on mobile